sensor_id;sensor_type;location;lat;lon;timestamp;P1;durP1;ratioP1;P2;durP2;ratioP2
49221;SDS011;35047;37.588;-122.048;2022-07-23T00:02:37;9.30;;;1.65;;
49221;SDS011;35047;37.588;-122.048;2022-07-23T00:07:34;8.73;;;1.83;;
49221;SDS011;35047;37.588;-122.048;2022-07-23T00:10:01;6.68;;;1.70;;
49221;SDS011;35047;37.588;-122.048;2022-07-23T00:12:28;8.10;;;1.92;;
49221;SDS011;35047;37.588;-122.048;2022-07-23T00:14:55;4.43;;;1.40;;
49221;SDS011;35047;37.588;-122.048;2022-07-23T00:19:47;4.55;;;1.40;;
49221;SDS011;35047;37.588;-122.048;2022-07-23T00:22:15;5.90;;;1.70;;
49221;SDS011;35047;37.588;-122.048;2022-07-23T00:24:41;6.72;;;1.73;;
49221;SDS011;35047;37.588;-122.048;2022-07-23T00:27:09;6.45;;;1.50;;
49221;SDS011;35047;37.588;-122.048;2022-07-23T00:32:02;10.70;;;1.83;;
49221;SDS011;35047;37.588;-122.048;2022-07-23T00:34:30;8.27;;;1.67;;
49221;SDS011;35047;37.588;-122.048;2022-07-23T00:36:57;8.40;;;1.92;;
49221;SDS011;35047;37.588;-122.048;2022-07-23T00:41:50;3.45;;;1.30;;
49221;SDS011;35047;37.588;-122.048;2022-07-23T00:44:21;5.18;;;1.30;;
49221;SDS011;35047;37.588;-122.048;2022-07-23T00:46:57;4.68;;;1.58;;
49221;SDS011;35047;37.588;-122.048;2022-07-23T00:49:28;6.35;;;1.70;;
49221;SDS011;35047;37.588;-122.048;2022-07-23T00:51:56;7.07;;;1.50;;
49221;SDS011;35047;37.588;-122.048;2022-07-23T00:54:26;5.85;;;1.65;;
49221;SDS011;35047;37.588;-122.048;2022-07-23T00:56:53;7.47;;;1.98;;
49221;SDS011;35047;37.588;-122.048;2022-07-23T00:59:20;5.53;;;1.55;;
49221;SDS011;35047;37.588;-122.048;2022-07-23T01:01:47;6.63;;;1.77;;
49221;SDS011;35047;37.588;-122.048;2022-07-23T01:04:14;6.50;;;1.70;;
49221;SDS011;35047;37.588;-122.048;2022-07-23T01:06:41;7.25;;;1.35;;
49221;SDS011;35047;37.588;-122.048;2022-07-23T01:09:10;5.20;;;2.00;;
49221;SDS011;35047;37.588;-122.048;2022-07-23T01:11:38;6.53;;;1.60;;
49221;SDS011;35047;37.588;-122.048;2022-07-23T01:14:12;5.78;;;1.52;;
49221;SDS011;35047;37.588;-122.048;2022-07-23T01:16:45;12.10;;;2.10;;
49221;SDS011;35047;37.588;-122.048;2022-07-23T01:19:13;6.20;;;1.27;;
49221;SDS011;35047;37.588;-122.048;2022-07-23T01:21:42;6.80;;;1.55;;
49221;SDS011;35047;37.588;-122.048;2022-07-23T01:24:11;6.55;;;1.67;;
49221;SDS011;35047;37.588;-122.048;2022-07-23T01:26:41;3.67;;;1.33;;
49221;SDS011;35047;37.588;-122.048;2022-07-23T01:29:09;9.07;;;1.65;;
49221;SDS011;35047;37.588;-122.048;2022-07-23T01:31:36;6.15;;;1.58;;
49221;SDS011;35047;37.588;-122.048;2022-07-23T01:34:04;8.95;;;1.60;;
49221;SDS011;35047;37.588;-122.048;2022-07-23T01:36:32;7.95;;;1.35;;
49221;SDS011;35047;37.588;-122.048;2022-07-23T01:39:03;4.70;;;1.35;;
49221;SDS011;35047;37.588;-122.048;2022-07-23T01:41:31;7.47;;;1.80;;
49221;SDS011;35047;37.588;-122.048;2022-07-23T01:43:57;10.07;;;1.77;;
49221;SDS011;35047;37.588;-122.048;2022-07-23T01:46:25;8.25;;;2.05;;
49221;SDS011;35047;37.588;-122.048;2022-07-23T01:48:51;10.75;;;1.67;;
49221;SDS011;35047;37.588;-122.048;2022-07-23T01:51:20;6.00;;;1.50;;
49221;SDS011;35047;37.588;-122.048;2022-07-23T01:53:46;9.55;;;1.80;;
49221;SDS011;35047;37.588;-122.048;2022-07-23T01:56:13;9.10;;;1.77;;
49221;SDS011;35047;37.588;-122.048;2022-07-23T01:58:41;9.98;;;2.08;;
49221;SDS011;35047;37.588;-122.048;2022-07-23T02:01:08;4.93;;;1.60;;
49221;SDS011;35047;37.588;-122.048;2022-07-23T02:03:34;6.75;;;1.83;;
49221;SDS011;35047;37.588;-122.048;2022-07-23T02:06:01;5.00;;;1.55;;
49221;SDS011;35047;37.588;-122.048;2022-07-23T02:08:27;6.43;;;1.55;;
49221;SDS011;35047;37.588;-122.048;2022-07-23T02:10:55;7.40;;;1.90;;
49221;SDS011;35047;37.588;-122.048;2022-07-23T02:13:21;6.63;;;1.42;;
49221;SDS011;35047;37.588;-122.048;2022-07-23T02:15:48;5.68;;;1.85;;
49221;SDS011;35047;37.588;-122.048;2022-07-23T02:18:17;5.85;;;1.70;;
49221;SDS011;35047;37.588;-122.048;2022-07-23T02:20:44;5.60;;;1.70;;
49221;SDS011;35047;37.588;-122.048;2022-07-23T02:23:10;11.63;;;2.40;;
49221;SDS011;35047;37.588;-122.048;2022-07-23T02:25:37;7.60;;;1.80;;
49221;SDS011;35047;37.588;-122.048;2022-07-23T02:28:04;9.13;;;1.73;;
49221;SDS011;35047;37.588;-122.048;2022-07-23T02:30:31;7.97;;;1.98;;
49221;SDS011;35047;37.588;-122.048;2022-07-23T02:32:58;9.13;;;1.75;;
49221;SDS011;35047;37.588;-122.048;2022-07-23T02:35:24;7.63;;;1.40;;
49221;SDS011;35047;37.588;-122.048;2022-07-23T02:37:51;7.32;;;1.65;;
49221;SDS011;35047;37.588;-122.048;2022-07-23T02:40:18;6.82;;;1.75;;
49221;SDS011;35047;37.588;-122.048;2022-07-23T02:45:12;10.75;;;2.00;;
49221;SDS011;35047;37.588;-122.048;2022-07-23T02:47:39;7.55;;;1.83;;
49221;SDS011;35047;37.588;-122.048;2022-07-23T02:52:32;10.60;;;2.05;;
49221;SDS011;35047;37.588;-122.048;2022-07-23T02:54:59;8.65;;;2.58;;
49221;SDS011;35047;37.588;-122.048;2022-07-23T02:57:26;7.57;;;1.85;;
49221;SDS011;35047;37.588;-122.048;2022-07-23T02:59:53;9.40;;;2.17;;
49221;SDS011;35047;37.588;-122.048;2022-07-23T03:02:20;9.32;;;1.85;;
49221;SDS011;35047;37.588;-122.048;2022-07-23T03:04:47;9.13;;;2.28;;
49221;SDS011;35047;37.588;-122.048;2022-07-23T03:07:15;10.00;;;2.35;;
49221;SDS011;35047;37.588;-122.048;2022-07-23T03:09:43;7.90;;;2.13;;
49221;SDS011;35047;37.588;-122.048;2022-07-23T03:12:09;8.80;;;2.10;;
49221;SDS011;35047;37.588;-122.048;2022-07-23T03:14:35;7.00;;;1.90;;
49221;SDS011;35047;37.588;-122.048;2022-07-23T03:17:02;8.95;;;2.15;;
49221;SDS011;35047;37.588;-122.048;2022-07-23T03:19:28;9.10;;;1.93;;
49221;SDS011;35047;37.588;-122.048;2022-07-23T03:21:56;8.65;;;1.70;;
49221;SDS011;35047;37.588;-122.048;2022-07-23T03:24:23;8.80;;;1.83;;
49221;SDS011;35047;37.588;-122.048;2022-07-23T03:27:10;7.80;;;1.95;;
49221;SDS011;35047;37.588;-122.048;2022-07-23T03:29:37;9.65;;;2.03;;
49221;SDS011;35047;37.588;-122.048;2022-07-23T03:32:04;7.60;;;1.65;;
49221;SDS011;35047;37.588;-122.048;2022-07-23T03:34:30;9.65;;;2.03;;
49221;SDS011;35047;37.588;-122.048;2022-07-23T03:36:58;10.75;;;2.08;;
49221;SDS011;35047;37.588;-122.048;2022-07-23T03:39:24;10.98;;;2.58;;
49221;SDS011;35047;37.588;-122.048;2022-07-23T03:41:51;7.22;;;1.63;;
49221;SDS011;35047;37.588;-122.048;2022-07-23T03:46:45;14.88;;;2.50;;
49221;SDS011;35047;37.588;-122.048;2022-07-23T03:49:11;12.03;;;2.63;;
49221;SDS011;35047;37.588;-122.048;2022-07-23T03:51:38;11.77;;;2.00;;
49221;SDS011;35047;37.588;-122.048;2022-07-23T03:54:05;12.47;;;2.17;;
49221;SDS011;35047;37.588;-122.048;2022-07-23T03:56:33;8.73;;;2.08;;
49221;SDS011;35047;37.588;-122.048;2022-07-23T03:59:00;8.88;;;2.00;;
49221;SDS011;35047;37.588;-122.048;2022-07-23T04:01:27;11.27;;;2.00;;
49221;SDS011;35047;37.588;-122.048;2022-07-23T04:03:53;10.43;;;2.07;;
49221;SDS011;35047;37.588;-122.048;2022-07-23T04:06:20;13.45;;;1.80;;
49221;SDS011;35047;37.588;-122.048;2022-07-23T04:08:47;9.80;;;1.87;;
49221;SDS011;35047;37.588;-122.048;2022-07-23T04:11:14;10.35;;;1.63;;
49221;SDS011;35047;37.588;-122.048;2022-07-23T04:13:40;8.30;;;1.77;;
49221;SDS011;35047;37.588;-122.048;2022-07-23T04:16:07;16.67;;;2.20;;
49221;SDS011;35047;37.588;-122.048;2022-07-23T04:18:34;12.23;;;2.40;;
49221;SDS011;35047;37.588;-122.048;2022-07-23T04:21:01;10.77;;;2.40;;
49221;SDS011;35047;37.588;-122.048;2022-07-23T04:23:27;15.50;;;4.17;;
49221;SDS011;35047;37.588;-122.048;2022-07-23T04:28:21;11.50;;;3.00;;
49221;SDS011;35047;37.588;-122.048;2022-07-23T04:30:48;10.98;;;1.75;;
49221;SDS011;35047;37.588;-122.048;2022-07-23T04:33:15;14.77;;;2.20;;
49221;SDS011;35047;37.588;-122.048;2022-07-23T04:38:08;9.43;;;2.10;;
49221;SDS011;35047;37.588;-122.048;2022-07-23T04:40:36;7.85;;;2.40;;
49221;SDS011;35047;37.588;-122.048;2022-07-23T04:43:02;12.23;;;2.20;;
49221;SDS011;35047;37.588;-122.048;2022-07-23T04:45:30;9.38;;;2.03;;
49221;SDS011;35047;37.588;-122.048;2022-07-23T04:47:57;9.37;;;2.13;;
49221;SDS011;35047;37.588;-122.048;2022-07-23T04:50:24;8.85;;;2.15;;
49221;SDS011;35047;37.588;-122.048;2022-07-23T04:52:50;11.87;;;1.77;;
49221;SDS011;35047;37.588;-122.048;2022-07-23T04:55:17;8.68;;;1.70;;
49221;SDS011;35047;37.588;-122.048;2022-07-23T04:57:44;6.38;;;1.88;;
49221;SDS011;35047;37.588;-122.048;2022-07-23T05:00:12;13.65;;;2.17;;
49221;SDS011;35047;37.588;-122.048;2022-07-23T05:02:38;7.97;;;1.50;;
49221;SDS011;35047;37.588;-122.048;2022-07-23T05:05:05;13.83;;;2.00;;
49221;SDS011;35047;37.588;-122.048;2022-07-23T05:07:33;9.13;;;2.05;;
49221;SDS011;35047;37.588;-122.048;2022-07-23T05:09:59;10.07;;;1.50;;
49221;SDS011;35047;37.588;-122.048;2022-07-23T05:12:26;11.52;;;1.95;;
49221;SDS011;35047;37.588;-122.048;2022-07-23T05:14:52;14.00;;;2.10;;
49221;SDS011;35047;37.588;-122.048;2022-07-23T05:17:19;12.18;;;1.98;;
49221;SDS011;35047;37.588;-122.048;2022-07-23T05:19:45;9.73;;;2.00;;
49221;SDS011;35047;37.588;-122.048;2022-07-23T05:22:12;14.82;;;2.15;;
49221;SDS011;35047;37.588;-122.048;2022-07-23T05:24:39;12.13;;;3.07;;
49221;SDS011;35047;37.588;-122.048;2022-07-23T05:27:05;10.60;;;2.00;;
49221;SDS011;35047;37.588;-122.048;2022-07-23T05:29:32;8.30;;;1.88;;
49221;SDS011;35047;37.588;-122.048;2022-07-23T05:31:59;9.65;;;2.15;;
49221;SDS011;35047;37.588;-122.048;2022-07-23T05:34:26;9.57;;;1.83;;
49221;SDS011;35047;37.588;-122.048;2022-07-23T05:36:53;11.50;;;1.80;;
49221;SDS011;35047;37.588;-122.048;2022-07-23T05:39:20;6.07;;;1.77;;
49221;SDS011;35047;37.588;-122.048;2022-07-23T05:41:46;7.38;;;1.77;;
49221;SDS011;35047;37.588;-122.048;2022-07-23T05:44:12;9.13;;;2.13;;
49221;SDS011;35047;37.588;-122.048;2022-07-23T05:46:39;11.40;;;2.25;;
49221;SDS011;35047;37.588;-122.048;2022-07-23T05:49:06;9.75;;;2.35;;
49221;SDS011;35047;37.588;-122.048;2022-07-23T05:51:33;12.40;;;2.60;;
49221;SDS011;35047;37.588;-122.048;2022-07-23T05:54:00;15.90;;;2.73;;
49221;SDS011;35047;37.588;-122.048;2022-07-23T05:56:26;12.70;;;2.30;;
49221;SDS011;35047;37.588;-122.048;2022-07-23T05:58:54;10.52;;;1.73;;
49221;SDS011;35047;37.588;-122.048;2022-07-23T06:01:20;13.70;;;3.17;;
49221;SDS011;35047;37.588;-122.048;2022-07-23T06:03:47;15.73;;;2.47;;
49221;SDS011;35047;37.588;-122.048;2022-07-23T06:06:14;11.95;;;1.95;;
49221;SDS011;35047;37.588;-122.048;2022-07-23T06:08:40;9.65;;;1.92;;
49221;SDS011;35047;37.588;-122.048;2022-07-23T06:11:08;12.27;;;2.20;;
49221;SDS011;35047;37.588;-122.048;2022-07-23T06:13:34;10.23;;;2.10;;
49221;SDS011;35047;37.588;-122.048;2022-07-23T06:16:01;12.45;;;2.25;;
49221;SDS011;35047;37.588;-122.048;2022-07-23T06:18:28;14.20;;;2.57;;
49221;SDS011;35047;37.588;-122.048;2022-07-23T06:23:22;9.55;;;1.70;;
49221;SDS011;35047;37.588;-122.048;2022-07-23T06:25:50;12.07;;;2.28;;
49221;SDS011;35047;37.588;-122.048;2022-07-23T06:28:16;13.65;;;2.70;;
49221;SDS011;35047;37.588;-122.048;2022-07-23T06:30:43;13.88;;;2.72;;
49221;SDS011;35047;37.588;-122.048;2022-07-23T06:33:13;12.02;;;2.55;;
49221;SDS011;35047;37.588;-122.048;2022-07-23T06:35:44;12.20;;;2.35;;
49221;SDS011;35047;37.588;-122.048;2022-07-23T06:38:11;13.07;;;2.83;;
49221;SDS011;35047;37.588;-122.048;2022-07-23T06:40:46;9.05;;;2.30;;
49221;SDS011;35047;37.588;-122.048;2022-07-23T06:43:13;12.65;;;2.20;;
49221;SDS011;35047;37.588;-122.048;2022-07-23T06:45:42;10.98;;;2.28;;
49221;SDS011;35047;37.588;-122.048;2022-07-23T06:48:08;13.38;;;2.42;;
49221;SDS011;35047;37.588;-122.048;2022-07-23T06:50:35;12.63;;;2.60;;
49221;SDS011;35047;37.588;-122.048;2022-07-23T06:53:01;13.00;;;2.38;;
49221;SDS011;35047;37.588;-122.048;2022-07-23T06:55:28;11.18;;;2.47;;
49221;SDS011;35047;37.588;-122.048;2022-07-23T06:57:55;15.50;;;2.97;;
49221;SDS011;35047;37.588;-122.048;2022-07-23T07:02:48;11.77;;;2.20;;
49221;SDS011;35047;37.588;-122.048;2022-07-23T07:05:15;15.23;;;2.60;;
49221;SDS011;35047;37.588;-122.048;2022-07-23T07:07:42;13.23;;;2.83;;
49221;SDS011;35047;37.588;-122.048;2022-07-23T07:10:08;15.68;;;2.65;;
49221;SDS011;35047;37.588;-122.048;2022-07-23T07:12:35;10.95;;;2.75;;
49221;SDS011;35047;37.588;-122.048;2022-07-23T07:15:02;12.75;;;2.33;;
49221;SDS011;35047;37.588;-122.048;2022-07-23T07:17:29;9.30;;;2.35;;
49221;SDS011;35047;37.588;-122.048;2022-07-23T07:19:56;14.93;;;2.90;;
49221;SDS011;35047;37.588;-122.048;2022-07-23T07:22:22;12.13;;;2.70;;
49221;SDS011;35047;37.588;-122.048;2022-07-23T07:24:50;13.75;;;2.63;;
49221;SDS011;35047;37.588;-122.048;2022-07-23T07:27:16;10.18;;;2.47;;
49221;SDS011;35047;37.588;-122.048;2022-07-23T07:29:43;11.87;;;2.27;;
49221;SDS011;35047;37.588;-122.048;2022-07-23T07:32:09;16.55;;;3.13;;
49221;SDS011;35047;37.588;-122.048;2022-07-23T07:34:37;12.32;;;2.65;;
49221;SDS011;35047;37.588;-122.048;2022-07-23T07:37:03;11.43;;;2.17;;
49221;SDS011;35047;37.588;-122.048;2022-07-23T07:41:57;12.95;;;2.65;;
49221;SDS011;35047;37.588;-122.048;2022-07-23T07:44:24;13.10;;;2.72;;
49221;SDS011;35047;37.588;-122.048;2022-07-23T07:46:51;14.37;;;3.03;;
49221;SDS011;35047;37.588;-122.048;2022-07-23T07:49:18;12.35;;;2.80;;
49221;SDS011;35047;37.588;-122.048;2022-07-23T07:51:45;15.90;;;3.30;;
49221;SDS011;35047;37.588;-122.048;2022-07-23T07:54:12;19.73;;;2.77;;
49221;SDS011;35047;37.588;-122.048;2022-07-23T07:56:39;12.82;;;2.50;;
49221;SDS011;35047;37.588;-122.048;2022-07-23T07:59:06;13.20;;;2.60;;
49221;SDS011;35047;37.588;-122.048;2022-07-23T08:01:33;16.77;;;2.60;;
49221;SDS011;35047;37.588;-122.048;2022-07-23T08:03:59;11.70;;;2.23;;
49221;SDS011;35047;37.588;-122.048;2022-07-23T08:06:26;13.60;;;2.38;;
49221;SDS011;35047;37.588;-122.048;2022-07-23T08:08:55;15.57;;;3.15;;
49221;SDS011;35047;37.588;-122.048;2022-07-23T08:11:21;12.48;;;2.20;;
49221;SDS011;35047;37.588;-122.048;2022-07-23T08:16:15;14.20;;;2.40;;
49221;SDS011;35047;37.588;-122.048;2022-07-23T08:18:42;15.38;;;2.50;;
49221;SDS011;35047;37.588;-122.048;2022-07-23T08:21:09;13.37;;;2.90;;
49221;SDS011;35047;37.588;-122.048;2022-07-23T08:23:36;9.95;;;2.17;;
49221;SDS011;35047;37.588;-122.048;2022-07-23T08:26:03;9.07;;;2.00;;
49221;SDS011;35047;37.588;-122.048;2022-07-23T08:28:30;8.27;;;2.22;;
49221;SDS011;35047;37.588;-122.048;2022-07-23T08:30:58;13.85;;;2.78;;
49221;SDS011;35047;37.588;-122.048;2022-07-23T08:33:25;11.73;;;2.63;;
49221;SDS011;35047;37.588;-122.048;2022-07-23T08:35:52;9.82;;;2.03;;
49221;SDS011;35047;37.588;-122.048;2022-07-23T08:38:21;9.68;;;1.90;;
49221;SDS011;35047;37.588;-122.048;2022-07-23T08:40:53;19.42;;;3.28;;
49221;SDS011;35047;37.588;-122.048;2022-07-23T08:43:26;15.35;;;3.00;;
49221;SDS011;35047;37.588;-122.048;2022-07-23T08:45:58;13.02;;;2.85;;
49221;SDS011;35047;37.588;-122.048;2022-07-23T08:48:26;18.55;;;3.33;;
49221;SDS011;35047;37.588;-122.048;2022-07-23T08:50:58;14.20;;;3.10;;
49221;SDS011;35047;37.588;-122.048;2022-07-23T08:53:27;13.07;;;2.13;;
49221;SDS011;35047;37.588;-122.048;2022-07-23T08:55:58;16.00;;;2.30;;
49221;SDS011;35047;37.588;-122.048;2022-07-23T08:58:30;12.65;;;2.47;;
49221;SDS011;35047;37.588;-122.048;2022-07-23T09:00:58;10.70;;;2.78;;
49221;SDS011;35047;37.588;-122.048;2022-07-23T09:05:54;12.77;;;2.30;;
49221;SDS011;35047;37.588;-122.048;2022-07-23T09:08:41;11.30;;;1.98;;
49221;SDS011;35047;37.588;-122.048;2022-07-23T09:11:13;11.43;;;2.05;;
49221;SDS011;35047;37.588;-122.048;2022-07-23T09:13:48;11.02;;;1.73;;
49221;SDS011;35047;37.588;-122.048;2022-07-23T09:16:18;10.32;;;1.95;;
49221;SDS011;35047;37.588;-122.048;2022-07-23T09:18:56;10.63;;;1.77;;
49221;SDS011;35047;37.588;-122.048;2022-07-23T09:21:31;9.77;;;1.52;;
49221;SDS011;35047;37.588;-122.048;2022-07-23T09:24:01;9.90;;;2.42;;
49221;SDS011;35047;37.588;-122.048;2022-07-23T09:26:31;11.40;;;1.80;;
49221;SDS011;35047;37.588;-122.048;2022-07-23T09:34:20;8.65;;;2.08;;
49221;SDS011;35047;37.588;-122.048;2022-07-23T09:36:47;12.35;;;2.47;;
49221;SDS011;35047;37.588;-122.048;2022-07-23T09:39:16;9.32;;;2.30;;
49221;SDS011;35047;37.588;-122.048;2022-07-23T09:44:21;12.23;;;1.80;;
49221;SDS011;35047;37.588;-122.048;2022-07-23T09:46:49;14.13;;;2.10;;
49221;SDS011;35047;37.588;-122.048;2022-07-23T09:49:23;14.27;;;2.53;;
49221;SDS011;35047;37.588;-122.048;2022-07-23T09:51:51;11.88;;;2.13;;
49221;SDS011;35047;37.588;-122.048;2022-07-23T09:54:24;9.85;;;1.80;;
49221;SDS011;35047;37.588;-122.048;2022-07-23T09:56:59;10.38;;;1.85;;
49221;SDS011;35047;37.588;-122.048;2022-07-23T09:59:36;12.00;;;2.22;;
49221;SDS011;35047;37.588;-122.048;2022-07-23T10:02:05;9.05;;;1.88;;
49221;SDS011;35047;37.588;-122.048;2022-07-23T10:04:33;9.52;;;2.00;;
49221;SDS011;35047;37.588;-122.048;2022-07-23T10:07:02;8.75;;;1.85;;
49221;SDS011;35047;37.588;-122.048;2022-07-23T10:09:31;12.98;;;2.63;;
49221;SDS011;35047;37.588;-122.048;2022-07-23T10:12:02;14.50;;;2.05;;
49221;SDS011;35047;37.588;-122.048;2022-07-23T10:14:42;9.48;;;1.70;;
49221;SDS011;35047;37.588;-122.048;2022-07-23T10:17:10;12.88;;;2.15;;
49221;SDS011;35047;37.588;-122.048;2022-07-23T10:19:38;15.63;;;2.67;;
49221;SDS011;35047;37.588;-122.048;2022-07-23T10:22:14;15.85;;;2.15;;
49221;SDS011;35047;37.588;-122.048;2022-07-23T10:30:20;14.30;;;2.63;;
49221;SDS011;35047;37.588;-122.048;2022-07-23T10:38:27;11.70;;;1.85;;
49221;SDS011;35047;37.588;-122.048;2022-07-23T10:41:04;10.50;;;2.05;;
49221;SDS011;35047;37.588;-122.048;2022-07-23T10:43:31;8.32;;;2.10;;
49221;SDS011;35047;37.588;-122.048;2022-07-23T10:46:31;14.63;;;1.95;;
49221;SDS011;35047;37.588;-122.048;2022-07-23T10:49:27;6.63;;;1.52;;
49221;SDS011;35047;37.588;-122.048;2022-07-23T10:54:45;11.20;;;2.20;;
49221;SDS011;35047;37.588;-122.048;2022-07-23T10:57:19;5.72;;;1.85;;
49221;SDS011;35047;37.588;-122.048;2022-07-23T11:05:05;9.85;;;1.60;;
49221;SDS011;35047;37.588;-122.048;2022-07-23T11:08:03;9.30;;;1.42;;
49221;SDS011;35047;37.588;-122.048;2022-07-23T11:13:39;9.18;;;1.83;;
49221;SDS011;35047;37.588;-122.048;2022-07-23T11:16:10;6.32;;;1.65;;
49221;SDS011;35047;37.588;-122.048;2022-07-23T11:32:03;7.20;;;1.17;;
49221;SDS011;35047;37.588;-122.048;2022-07-23T11:34:46;6.30;;;1.25;;
49221;SDS011;35047;37.588;-122.048;2022-07-23T11:40:06;9.73;;;1.85;;
49221;SDS011;35047;37.588;-122.048;2022-07-23T11:42:34;10.57;;;1.50;;
49221;SDS011;35047;37.588;-122.048;2022-07-23T11:45:02;10.35;;;1.42;;
49221;SDS011;35047;37.588;-122.048;2022-07-23T11:47:30;10.32;;;1.73;;
49221;SDS011;35047;37.588;-122.048;2022-07-23T11:49:59;7.82;;;1.80;;
49221;SDS011;35047;37.588;-122.048;2022-07-23T11:52:27;10.27;;;1.92;;
49221;SDS011;35047;37.588;-122.048;2022-07-23T11:54:56;5.63;;;1.70;;
49221;SDS011;35047;37.588;-122.048;2022-07-23T11:57:27;6.45;;;1.33;;
49221;SDS011;35047;37.588;-122.048;2022-07-23T12:00:03;7.97;;;1.50;;
49221;SDS011;35047;37.588;-122.048;2022-07-23T12:02:41;10.25;;;1.60;;
49221;SDS011;35047;37.588;-122.048;2022-07-23T12:05:16;7.25;;;1.77;;
49221;SDS011;35047;37.588;-122.048;2022-07-23T12:07:47;11.50;;;1.92;;
49221;SDS011;35047;37.588;-122.048;2022-07-23T12:10:23;8.15;;;1.55;;
49221;SDS011;35047;37.588;-122.048;2022-07-23T12:13:01;15.25;;;2.13;;
49221;SDS011;35047;37.588;-122.048;2022-07-23T12:15:32;9.52;;;2.30;;
49221;SDS011;35047;37.588;-122.048;2022-07-23T12:18:03;8.93;;;2.10;;
49221;SDS011;35047;37.588;-122.048;2022-07-23T12:20:34;7.00;;;1.60;;
49221;SDS011;35047;37.588;-122.048;2022-07-23T12:23:08;11.52;;;2.58;;
49221;SDS011;35047;37.588;-122.048;2022-07-23T12:25:42;8.38;;;1.55;;
49221;SDS011;35047;37.588;-122.048;2022-07-23T12:28:14;5.53;;;1.33;;
49221;SDS011;35047;37.588;-122.048;2022-07-23T12:30:43;8.23;;;1.60;;
49221;SDS011;35047;37.588;-122.048;2022-07-23T12:33:12;6.18;;;1.27;;
49221;SDS011;35047;37.588;-122.048;2022-07-23T12:35:52;7.45;;;1.52;;
49221;SDS011;35047;37.588;-122.048;2022-07-23T12:38:20;9.20;;;1.73;;
49221;SDS011;35047;37.588;-122.048;2022-07-23T12:40:50;8.70;;;1.55;;
49221;SDS011;35047;37.588;-122.048;2022-07-23T12:43:23;7.30;;;1.38;;
49221;SDS011;35047;37.588;-122.048;2022-07-23T12:51:01;9.43;;;1.50;;
49221;SDS011;35047;37.588;-122.048;2022-07-23T12:53:38;5.68;;;1.23;;
49221;SDS011;35047;37.588;-122.048;2022-07-23T12:56:09;6.32;;;1.20;;
49221;SDS011;35047;37.588;-122.048;2022-07-23T12:58:48;5.35;;;1.15;;
49221;SDS011;35047;37.588;-122.048;2022-07-23T13:01:29;3.17;;;1.05;;
49221;SDS011;35047;37.588;-122.048;2022-07-23T13:04:07;5.63;;;1.33;;
49221;SDS011;35047;37.588;-122.048;2022-07-23T13:09:15;9.45;;;1.45;;
49221;SDS011;35047;37.588;-122.048;2022-07-23T13:11:47;6.47;;;1.40;;
49221;SDS011;35047;37.588;-122.048;2022-07-23T13:14:15;8.05;;;1.52;;
49221;SDS011;35047;37.588;-122.048;2022-07-23T13:16:43;7.40;;;1.40;;
49221;SDS011;35047;37.588;-122.048;2022-07-23T13:19:11;8.80;;;1.38;;
49221;SDS011;35047;37.588;-122.048;2022-07-23T13:21:39;5.82;;;1.20;;
49221;SDS011;35047;37.588;-122.048;2022-07-23T13:26:33;6.88;;;1.55;;
49221;SDS011;35047;37.588;-122.048;2022-07-23T13:29:00;7.97;;;1.55;;
49221;SDS011;35047;37.588;-122.048;2022-07-23T13:31:26;4.15;;;1.20;;
49221;SDS011;35047;37.588;-122.048;2022-07-23T13:33:53;10.05;;;0.98;;
49221;SDS011;35047;37.588;-122.048;2022-07-23T13:36:20;3.85;;;1.00;;
49221;SDS011;35047;37.588;-122.048;2022-07-23T13:38:46;2.80;;;0.73;;
49221;SDS011;35047;37.588;-122.048;2022-07-23T13:41:16;7.10;;;1.10;;
49221;SDS011;35047;37.588;-122.048;2022-07-23T13:43:43;7.85;;;1.33;;
49221;SDS011;35047;37.588;-122.048;2022-07-23T13:48:37;5.22;;;1.00;;
49221;SDS011;35047;37.588;-122.048;2022-07-23T13:51:04;3.70;;;1.00;;
49221;SDS011;35047;37.588;-122.048;2022-07-23T13:53:32;8.60;;;1.17;;
49221;SDS011;35047;37.588;-122.048;2022-07-23T13:55:59;3.23;;;0.97;;
49221;SDS011;35047;37.588;-122.048;2022-07-23T13:58:25;3.97;;;1.00;;
49221;SDS011;35047;37.588;-122.048;2022-07-23T14:00:52;4.72;;;1.20;;
49221;SDS011;35047;37.588;-122.048;2022-07-23T14:03:20;4.88;;;1.25;;
49221;SDS011;35047;37.588;-122.048;2022-07-23T14:05:50;3.47;;;0.75;;
49221;SDS011;35047;37.588;-122.048;2022-07-23T14:08:18;6.10;;;1.13;;
49221;SDS011;35047;37.588;-122.048;2022-07-23T14:10:45;4.60;;;1.13;;
49221;SDS011;35047;37.588;-122.048;2022-07-23T14:13:12;3.03;;;1.00;;
49221;SDS011;35047;37.588;-122.048;2022-07-23T14:15:39;3.22;;;0.60;;
49221;SDS011;35047;37.588;-122.048;2022-07-23T14:18:07;4.38;;;0.90;;
49221;SDS011;35047;37.588;-122.048;2022-07-23T14:20:33;3.72;;;0.98;;
49221;SDS011;35047;37.588;-122.048;2022-07-23T14:23:00;4.07;;;0.98;;
49221;SDS011;35047;37.588;-122.048;2022-07-23T14:25:27;3.88;;;1.02;;
49221;SDS011;35047;37.588;-122.048;2022-07-23T14:27:54;4.60;;;0.80;;
49221;SDS011;35047;37.588;-122.048;2022-07-23T14:30:21;5.68;;;0.95;;
49221;SDS011;35047;37.588;-122.048;2022-07-23T14:32:49;3.47;;;0.85;;
49221;SDS011;35047;37.588;-122.048;2022-07-23T14:35:17;2.15;;;0.63;;
49221;SDS011;35047;37.588;-122.048;2022-07-23T14:37:44;5.47;;;0.90;;
49221;SDS011;35047;37.588;-122.048;2022-07-23T14:40:11;3.33;;;0.98;;
49221;SDS011;35047;37.588;-122.048;2022-07-23T14:45:06;4.15;;;0.98;;
49221;SDS011;35047;37.588;-122.048;2022-07-23T14:47:33;3.28;;;0.80;;
49221;SDS011;35047;37.588;-122.048;2022-07-23T14:50:00;6.20;;;1.37;;
49221;SDS011;35047;37.588;-122.048;2022-07-23T14:52:27;3.05;;;0.77;;
49221;SDS011;35047;37.588;-122.048;2022-07-23T14:54:53;6.17;;;1.00;;
49221;SDS011;35047;37.588;-122.048;2022-07-23T14:57:21;5.22;;;1.08;;
49221;SDS011;35047;37.588;-122.048;2022-07-23T14:59:47;3.25;;;0.75;;
49221;SDS011;35047;37.588;-122.048;2022-07-23T15:02:15;5.13;;;1.00;;
49221;SDS011;35047;37.588;-122.048;2022-07-23T15:04:41;4.75;;;1.05;;
49221;SDS011;35047;37.588;-122.048;2022-07-23T15:07:08;4.25;;;0.90;;
49221;SDS011;35047;37.588;-122.048;2022-07-23T15:09:35;5.30;;;0.90;;
49221;SDS011;35047;37.588;-122.048;2022-07-23T15:12:02;2.83;;;0.85;;
49221;SDS011;35047;37.588;-122.048;2022-07-23T15:14:30;3.08;;;0.70;;
49221;SDS011;35047;37.588;-122.048;2022-07-23T15:16:57;3.47;;;0.75;;
49221;SDS011;35047;37.588;-122.048;2022-07-23T15:19:23;2.83;;;0.80;;
49221;SDS011;35047;37.588;-122.048;2022-07-23T15:21:51;3.30;;;0.95;;
49221;SDS011;35047;37.588;-122.048;2022-07-23T15:24:17;4.23;;;0.93;;
49221;SDS011;35047;37.588;-122.048;2022-07-23T15:29:11;3.15;;;0.85;;
49221;SDS011;35047;37.588;-122.048;2022-07-23T15:31:37;2.70;;;0.80;;
49221;SDS011;35047;37.588;-122.048;2022-07-23T15:34:04;4.50;;;0.90;;
49221;SDS011;35047;37.588;-122.048;2022-07-23T15:38:57;4.85;;;1.00;;
49221;SDS011;35047;37.588;-122.048;2022-07-23T15:41:24;2.58;;;0.73;;
49221;SDS011;35047;37.588;-122.048;2022-07-23T15:43:51;2.88;;;0.75;;
49221;SDS011;35047;37.588;-122.048;2022-07-23T15:46:20;2.60;;;0.80;;
49221;SDS011;35047;37.588;-122.048;2022-07-23T15:51:14;3.88;;;0.90;;
49221;SDS011;35047;37.588;-122.048;2022-07-23T15:53:41;3.20;;;0.80;;
49221;SDS011;35047;37.588;-122.048;2022-07-23T15:56:08;4.25;;;1.05;;